Aviation Digital Data Service (ADDS)

Output produced by METARs form (0651 UTC 25 July 2017)
found at http://aviationweather.gov/adds/metars/
 
KDAG 250450Z AUTO 02005KT 10SM CLR 29/18 A2986 RMK AO2 SLP080 T02890178
KDAG 250535Z 2506/2606 VRB06KT P6SM SCT120 BKN150 
     FM252000 23008KT P6SM VCTS SCT100CB BKN150 
     FM260300 25014KT P6SM SCT250
       
KEDW 250558Z AUTO 22014KT 10SM OVC150 25/12 A2989 RMK AO2 SLP094 T02500120 10328 20250 52010
TAF AMD KEDW 250212Z 2502/2608 23012KT 9999 BKN100 QNH2984INS 
     BECMG 2520/2521 23012G20KT 9999 SCT100 QNH2991INS 
     BECMG 2523/2524 24020G28KT 9999 SCT120 QNH2993INS 
     BECMG 2602/2603 21012G18KT 9999 FEW120 QNH2998INS TX36/2523Z TN23/2512Z
       
KVCV 250635Z AUTO 00000KT 10SM CLR 25/10 A2997 RMK AO2
KONT 250553Z 26007KT 10SM SCT120 BKN180 BKN250 22/16 A2993 RMK AO2 SLP122 T02220161 10289 20217 51016
KONT 250520Z 2506/2612 VRB04KT P6SM SCT120 BKN170 
     FM252000 25010KT P6SM SCT150 
     FM260800 VRB04KT P6SM SCT150
       
KSNA 250600Z 24004KT 10SM OVC012 21/18 A2993 RMK AO2 T02110183
KSNA 250520Z 2506/2606 VRB04KT P6SM FEW015 SCT060 
     FM250800 VRB04KT P6SM BKN015 
     FM251900 23008KT P6SM SCT150 
     FM260400 VRB04KT P6SM SCT015
       
KSAN 250612Z 22004KT 10SM BKN014 21/17 A2997 RMK AO2 T02110172
KSAN 250520Z 2506/2612 19005KT P6SM SCT017 SCT140 
     FM250700 VRB04KT P6SM BKN016 
     FM251600 VRB04KT P6SM SCT020 
     FM251900 26009KT P6SM SCT150 
     FM260200 VRB04KT P6SM SCT016 
     FM260600 VRB04KT P6SM BKN015
       
KNID 250556Z AUTO 17007KT 10SM CLR 31/11 A2987 RMK AO2 SLP086 T03060111 10350 20306 51010 $
TAF KNID 2423/2523 VRB06KT 9999 FEW070 SCT100 BKN140 QNH2980INS 
     BECMG 2423/2500 21012G25KT 9999 FEW070 SCT100 BKN140 510009 QNH2976INS 
     BECMG 2504/2506 21007KT 9999 FEW100 SCT140 SCT240 500000 QNH2979INS WND VRB06KT AFT 2512 T26/2513Z T39/2522Z LAST NO AMD AFT 2505/ NEXT 2515
       
KNXP 250556Z 20004KT 10SM FEW050 SCT100 BKN250 28/21 A2997 RMK AO2 SLP109 T02780206 10317 20278 51015
TAF KNXP 2503/2603 32006KT 9999 VCTS SCT060CB BKN120 BKN250 QNH2986INS 
     BECMG 2508/2510 VRB06KT 9999 NSW SCT060 SCT120 QNH2993INS 
     FM251700 19015G25KT 9999 VCTS BKN050CB BKN100 BKN250 QNH2986INS 
     TEMPO 2521/2523 VRB25G30KT 0800 TSRA BR T29/2513Z T39/2521Z
       
KPSP 250553Z 32010KT 10SM CLR 33/13 A2983 RMK AO2 SLP096 T03330128 10383 20333 51021
KPSP 250520Z 2506/2606 33008KT P6SM SCT250 
     FM250700 VRB05KT P6SM SCT150 
     FM260100 33010KT P6SM SCT150
       
KLAX 250553Z 27008KT 10SM FEW015 SCT150 20/18 A2993 RMK AO2 SLP132 T02000178 10222 20200 53015
KLAX 250529Z 2506/2612 25006KT P6SM FEW015 BKN150 
     FM251000 VRB03KT P6SM BKN008 BKN150 
     FM251600 25008KT P6SM SCT012 BKN150 
     FM252000 26012KT P6SM SCT150 
     FM260300 25006KT P6SM FEW010 SCT150 
     FM260800 VRB03KT P6SM OVC015
       
KCNO 250553Z AUTO 22003KT 8SM CLR 22/17 A2994 RMK AO2 SLP133 T02170167 10300 20217 51016
KSMO 250551Z AUTO 24004KT 10SM OVC010 20/18 A2993 RMK AO2 SLP134 T02000183 10222 20200 53015
KSMO 250603Z 2506/2606 VRB03KT P6SM OVC010 
     FM251000 VRB03KT P6SM BKN008 BKN150 
     FM251600 VRB03KT P6SM SCT012 BKN150 
     FM252000 24008KT P6SM SCT150
       
KLGB 250553Z 32005KT 10SM CLR 22/18 A2992 RMK AO2 SLP132 T02170178 10256 20217 53016
KLGB 250529Z 2506/2606 VRB03KT P6SM BKN150 
     FM251100 VRB03KT P6SM BKN009 BKN150 
     FM251600 VRB03KT P6SM BKN150 
     FM251900 19012KT P6SM SCT150 
     FM260000 30008KT P6SM SCT150 
     FM260500 VRB03KT P6SM SCT150
       
KVNY 250551Z 15004KT 10SM BKN120 23/16 A2992 RMK AO2 SLP122 T02330156 10267 20228 53013
KVNY 250529Z 2506/2606 VRB03KT P6SM BKN120 
     FM252000 16008KT P6SM SCT150 
     FM260300 VRB03KT P6SM SCT150
       
KBUR 250553Z 18004KT 10SM CLR 22/17 A2992 RMK AO2 SLP120 T02220167 10250 20222 53013 $
KBUR 250529Z 2506/2606 VRB03KT P6SM BKN120 
     FM252000 18008KT P6SM SCT150 
     FM260400 VRB03KT P6SM SCT150
       
KBFL 250554Z 36012KT 10SM CLR 31/03 A2982 RMK AO2 SLP088 T03060033 10394 20306 51020
KBFL 250520Z 2506/2606 32009KT P6SM SKC
       
KPMD 250553Z AUTO 22013KT 10SM CLR 27/00 A2994 RMK AO2 SLP103 T02670000 10322 20267 51012
KPMD 250529Z 2506/2606 22012KT P6SM SCT090 BKN120 
     FM250700 23006KT P6SM BKN120 
     FM252000 23015G25KT P6SM SCT120 
     FM260200 23014KT P6SM SKC
       
KOXR 250551Z AUTO 28007KT 10SM OVC007 18/17 A2992 RMK AO2 SLP130 T01830167 10211 20183 52013
KOXR 250529Z 2506/2606 28006KT P6SM OVC008 
     FM250800 VRB03KT 5SM BR OVC008 
     FM251600 25005KT P6SM BKN012 
     FM252000 26010KT P6SM SCT012 
     FM260400 28006KT P6SM BKN012
       
KWJF 250556Z AUTO 23013KT 10SM CLR 24/12 A2993 RMK AO2 SLP111 T02440117 10328 20244 51013
KWJF 250529Z 2506/2606 24015KT P6SM BKN120 
     FM250800 24010KT P6SM SCT120 
     FM251100 VRB03KT P6SM SCT120 
     FM251700 24010KT P6SM SCT120 
     FM252100 22015G25KT P6SM FEW090 SCT120 
     FM260000 22020G30KT P6SM FEW090 SCT120 
     FM260300 22015G25KT P6SM FEW090 SCT120 
     FM260500 24010KT P6SM SCT120
       
KCMA 250622Z 26005KT 10SM BKN009 19/17 A2993 RMK AO2 T01940172
KCMA 250634Z 2507/2606 VRB03KT P6SM BKN009 
     FM250900 VRB03KT 6SM BR OVC008 
     FM251600 24008KT P6SM SKC 
     FM260400 VRB03KT P6SM SKC
       
KFAT 250553Z 33004KT 10SM CLR 31/09 A2979 RMK AO2 SLP084 T03060089 10383 20306 51015
KFAT 250520Z 2506/2606 30007KT P6SM SKC
       
KEED 250556Z AUTO 21006KT 10SM FEW085 FEW100 33/19 A2984 RMK AO2 SLP070 T03330194 10378 20333 51014
KEED 250535Z 2506/2606 20007KT P6SM SCT100 BKN150 
     FM251900 19012KT P6SM SCT100 BKN200
       
KLSV 250558Z 10015KT 10SM BKN120 30/20 A2987 RMK AO2A SLP088 T02980200 10348 20298 52021 $
TAF AMD KLSV 250548Z 2505/2605 13010G15KT 9999 SCT100 BKN140 QNH2980INS 
     TEMPO 2505/2506 VRB15G25KT VCTS BKN080CB 
     TEMPO 2506/2509 VRB12G18KT 8000 -SHRA VCTS BKN080CB 
     BECMG 2508/2509 13012KT 9999 SCT100 BKN140 QNH2981INS 
     BECMG 2512/2513 10009KT 9999 FEW100 SCT150 QNH2989INS 
     BECMG 2522/2523 13012G18KT 9999 VCTS SCT100CB QNH2987INS TX35/2523Z TN25/2512Z
       
KLAS 250556Z 16008KT 10SM SCT120 BKN150 30/18 A2989 RMK AO2 SLP091 T03000178 10350 20300 53017
KLAS 250535Z 2506/2612 19012KT P6SM BKN100 BKN150 BKN200 
     FM251000 VRB06KT P6SM SCT100 BKN150 
     FM251900 15010KT P6SM VCTS SCT100CB BKN150 
     TEMPO 2520/2524 VRB15G25KT -TSRA BKN080CB 
     FM260100 20012KT P6SM VCTS BKN100CB BKN200 
     FM261000 VRB06KT P6SM SCT100 BKN200
       
KHII 250635Z AUTO 14008KT 10SM OVC095 32/18 A2984 RMK AO2
KIFP 250535Z 2506/2606 17010KT P6SM SCT100 BKN150 
     FM251900 20013KT P6SM SCT100 BKN150